Nail, Arkansas
Current Conditions -  °F | °C
As of 7:53 AM on Thursday 30 Oct 2014 (Local Time) from KHRO Reporting Station
Clear Clear  
Wind Chill: 38°   Ceiling: Unl
Heat Index: 41°   Visibility: 10mi
Dew Point: 39°   Wind: 5mph
Humidity: 93%   Direction: 100°E
Pressure: 30.13"   Gusts: NA
Location:  35.8413°N, 93.3507°W
Report Text: KHRO 301253Z AUTO 10004KT 10SM CLR 05/04 A3013 RMK AO2 SLP204 T00500039
Loading
Personal Weather Stations






























Interactive Weather Map
Tropical Storm Tracking
New forecast layout! Learn more

10-Day Weather Forecast

Advertisements
Track Severe Weather on mobile